createdAt,value
2022-07-29T00:00:26.801Z,1002.62
2022-07-29T00:01:25.347Z,1002.64
2022-07-29T00:02:25.405Z,1002.62
2022-07-29T00:03:25.472Z,1002.64
2022-07-29T00:04:25.376Z,1002.66
2022-07-29T00:05:25.307Z,1002.68
2022-07-29T00:06:25.291Z,1002.68
2022-07-29T00:07:25.275Z,1002.70
2022-07-29T00:08:25.365Z,1002.72
2022-07-29T00:09:25.352Z,1002.76
2022-07-29T00:10:25.255Z,1002.79
2022-07-29T00:11:25.232Z,1002.82
2022-07-29T00:12:26.658Z,1002.88
2022-07-29T00:13:32.114Z,1002.88
2022-07-29T00:14:25.227Z,1002.91
2022-07-29T00:15:25.189Z,1002.91
2022-07-29T00:16:25.226Z,1002.93
2022-07-29T00:17:25.168Z,1002.97
2022-07-29T00:18:25.164Z,1003.03
2022-07-29T00:19:25.142Z,1003.07
2022-07-29T00:20:25.144Z,1003.12
2022-07-29T00:21:25.176Z,1003.17
2022-07-29T00:22:25.116Z,1003.21
2022-07-29T00:23:25.106Z,1003.24
2022-07-29T00:24:25.096Z,1003.25
2022-07-29T00:25:25.081Z,1003.27
2022-07-29T00:26:25.124Z,1003.29
2022-07-29T00:27:25.073Z,1003.31
2022-07-29T00:28:25.056Z,1003.30
2022-07-29T00:29:34.138Z,1003.31
2022-07-29T00:30:25.055Z,1003.32
2022-07-29T00:31:25.087Z,1003.32
2022-07-29T00:32:25.081Z,1003.31
2022-07-29T00:33:24.998Z,1003.29
2022-07-29T00:34:24.990Z,1003.27
2022-07-29T00:35:24.998Z,1003.24
2022-07-29T00:36:24.972Z,1003.22
2022-07-29T00:37:24.987Z,1003.22
2022-07-29T00:38:24.942Z,1003.23
2022-07-29T00:39:24.968Z,1003.24
2022-07-29T00:40:24.951Z,1003.26
2022-07-29T00:41:24.953Z,1003.24
2022-07-29T00:42:24.930Z,1003.24
2022-07-29T00:43:24.893Z,1003.23
2022-07-29T00:44:24.882Z,1003.20
2022-07-29T00:45:24.874Z,1003.17
2022-07-29T00:46:24.941Z,1003.17
2022-07-29T00:47:24.848Z,1003.16
2022-07-29T00:48:24.855Z,1003.15
2022-07-29T00:49:24.884Z,1003.14
2022-07-29T00:50:24.819Z,1003.12
2022-07-29T00:51:24.806Z,1003.10
2022-07-29T00:52:24.827Z,1003.09
2022-07-29T00:53:24.783Z,1003.07
2022-07-29T00:54:24.778Z,1003.06
2022-07-29T00:55:24.767Z,1003.04
2022-07-29T00:56:24.760Z,1003.03
2022-07-29T00:57:24.757Z,1003.02
2022-07-29T00:58:24.749Z,1002.99
2022-07-29T00:59:24.722Z,1002.96
2022-07-29T01:00:24.790Z,1002.96
2022-07-29T01:01:24.767Z,1002.94
2022-07-29T01:02:24.791Z,1002.93
2022-07-29T01:03:24.687Z,1002.93
2022-07-29T01:04:24.668Z,1002.92
2022-07-29T01:05:24.962Z,1002.91
2022-07-29T01:06:24.658Z,1002.93
2022-07-29T01:07:24.640Z,1002.91
2022-07-29T01:08:24.643Z,1002.90
2022-07-29T01:09:35.940Z,1002.88
2022-07-29T05:01:16.572Z,1002.24
2022-07-29T05:02:17.488Z,1002.24
2022-07-29T05:03:17.422Z,1002.25
2022-07-29T05:04:17.853Z,1002.25
2022-07-29T05:05:17.402Z,1002.26
2022-07-29T05:06:17.440Z,1002.27
2022-07-29T05:07:17.374Z,1002.29
2022-07-29T05:08:17.370Z,1002.30
2022-07-29T05:09:17.356Z,1002.31
2022-07-29T05:10:17.344Z,1002.32
2022-07-29T05:11:21.323Z,1002.33
2022-07-29T05:12:17.360Z,1002.33
2022-07-29T05:13:17.319Z,1002.33
2022-07-29T05:14:17.860Z,1002.34
2022-07-29T05:15:17.299Z,1002.35
2022-07-29T05:16:17.397Z,1002.36
2022-07-29T05:17:17.271Z,1002.36
2022-07-29T05:18:17.301Z,1002.35
2022-07-29T05:19:23.260Z,1002.35
2022-07-29T05:20:17.252Z,1002.35
2022-07-29T05:21:17.230Z,1002.36
2022-07-29T05:22:17.228Z,1002.40
2022-07-29T05:23:17.216Z,1002.41
2022-07-29T05:24:17.466Z,1002.42
2022-07-29T05:25:17.182Z,1002.45
2022-07-29T05:26:17.173Z,1002.46
2022-07-29T05:27:17.169Z,1002.46
2022-07-29T05:28:17.163Z,1002.47
2022-07-29T05:29:43.212Z,1002.47
2022-07-29T05:30:17.159Z,1002.48
2022-07-29T05:31:17.169Z,1002.50
2022-07-29T05:32:17.112Z,1002.52
2022-07-29T05:33:34.737Z,1002.50
2022-07-29T05:34:17.356Z,1002.51
2022-07-29T05:35:17.079Z,1002.53
2022-07-29T05:36:17.088Z,1002.53
2022-07-29T05:37:17.059Z,1002.53
2022-07-29T05:38:17.048Z,1002.53
2022-07-29T05:39:17.043Z,1002.53
2022-07-29T05:40:17.054Z,1002.53
2022-07-29T05:41:17.022Z,1002.54
2022-07-29T05:42:17.006Z,1002.53
2022-07-29T05:43:16.994Z,1002.52
2022-07-29T05:44:17.407Z,1002.51
2022-07-29T05:45:16.973Z,1002.51
2022-07-29T05:46:17.064Z,1002.51
2022-07-29T05:47:16.949Z,1002.52
2022-07-29T05:48:16.951Z,1002.53
2022-07-29T05:49:26.899Z,1002.52
2022-07-29T05:50:16.942Z,1002.51
2022-07-29T05:51:16.907Z,1002.51
2022-07-29T05:52:16.913Z,1002.50
2022-07-29T05:53:19.435Z,1002.51
2022-07-29T05:54:17.285Z,1002.50
2022-07-29T05:55:16.864Z,1002.49
2022-07-29T05:56:16.868Z,1002.47
2022-07-29T05:57:16.870Z,1002.48
2022-07-29T05:58:16.885Z,1002.49
2022-07-29T05:59:18.339Z,1002.49
2022-07-29T06:00:16.813Z,1002.50
2022-07-29T06:01:16.850Z,1002.49
2022-07-29T06:02:16.790Z,1002.52
2022-07-29T06:03:16.796Z,1002.53
2022-07-29T06:04:17.168Z,1002.55
2022-07-29T06:05:17.272Z,1002.56
2022-07-29T06:06:16.752Z,1002.56
2022-07-29T06:07:16.749Z,1002.55
2022-07-29T06:08:16.745Z,1002.58
2022-07-29T06:09:16.733Z,1002.57
2022-07-29T06:10:16.707Z,1002.58
2022-07-29T06:11:16.697Z,1002.59
2022-07-29T06:12:16.687Z,1002.60
2022-07-29T06:13:16.708Z,1002.59
2022-07-29T06:14:17.095Z,1002.60
2022-07-29T06:15:16.674Z,1002.59
2022-07-29T06:16:16.708Z,1002.57
2022-07-29T06:17:16.635Z,1002.58
2022-07-29T06:18:16.630Z,1002.56
2022-07-29T06:19:16.606Z,1002.56
2022-07-29T06:20:16.603Z,1002.58
2022-07-29T06:21:16.598Z,1002.59
2022-07-29T06:22:16.582Z,1002.58
2022-07-29T06:23:16.563Z,1002.60
2022-07-29T06:24:16.871Z,1002.57
2022-07-29T06:25:16.570Z,1002.59
2022-07-29T06:26:16.540Z,1002.58
2022-07-29T06:27:16.528Z,1002.57
2022-07-29T06:28:16.531Z,1002.56
2022-07-29T06:29:16.507Z,1002.57
2022-07-29T06:30:16.512Z,1002.56
2022-07-29T06:31:16.559Z,1002.58
2022-07-29T06:32:16.474Z,1002.56
2022-07-29T06:33:16.462Z,1002.55
2022-07-29T06:34:16.937Z,1002.55
2022-07-29T06:36:16.452Z,1002.54
2022-07-29T06:37:16.434Z,1002.55
2022-07-29T06:38:31.392Z,1002.54
2022-07-29T06:39:16.815Z,1002.53
2022-07-29T06:40:16.397Z,1002.53
2022-07-29T06:41:16.383Z,1002.53
2022-07-29T06:42:16.384Z,1002.53
2022-07-29T06:43:16.371Z,1002.52
2022-07-29T06:44:16.785Z,1002.51
2022-07-29T06:45:16.376Z,1002.51
2022-07-29T06:46:16.355Z,1002.52
2022-07-29T06:47:16.311Z,1002.52
2022-07-29T06:48:16.319Z,1002.53
2022-07-29T06:49:16.366Z,1002.52
2022-07-29T06:50:16.281Z,1002.54
2022-07-29T06:51:16.371Z,1002.55
2022-07-29T06:52:16.261Z,1002.56
2022-07-29T06:53:16.248Z,1002.56
2022-07-29T06:54:16.528Z,1002.60
2022-07-29T06:55:24.943Z,1002.60
2022-07-29T06:56:16.225Z,1002.63
2022-07-29T06:57:16.213Z,1002.64
2022-07-29T06:58:16.196Z,1002.65
2022-07-29T06:59:16.230Z,1002.65
2022-07-29T07:00:16.171Z,1002.66
2022-07-29T07:01:16.252Z,1002.67
2022-07-29T07:02:16.256Z,1002.69
2022-07-29T07:03:16.139Z,1002.72
2022-07-29T07:04:16.412Z,1002.74
2022-07-29T07:05:16.121Z,1002.74
2022-07-29T07:06:16.110Z,1002.73
2022-07-29T07:07:16.120Z,1002.75
2022-07-29T07:08:16.090Z,1002.76
2022-07-29T07:09:16.085Z,1002.78
2022-07-29T07:10:16.068Z,1002.78
2022-07-29T07:11:16.093Z,1002.78
2022-07-29T07:12:16.048Z,1002.78
2022-07-29T07:13:16.058Z,1002.80
2022-07-29T07:14:16.311Z,1002.80
2022-07-29T07:15:16.011Z,1002.80
2022-07-29T07:16:16.122Z,1002.81
2022-07-29T07:17:15.992Z,1002.80
2022-07-29T07:18:16.012Z,1002.82
2022-07-29T07:19:15.990Z,1002.81
2022-07-29T07:20:15.968Z,1002.82
2022-07-29T07:21:19.200Z,1002.82
2022-07-29T07:22:15.942Z,1002.83
2022-07-29T07:23:15.933Z,1002.82
2022-07-29T07:24:16.378Z,1002.83
2022-07-29T07:25:15.927Z,1002.81
2022-07-29T07:26:15.927Z,1002.81
2022-07-29T07:27:15.923Z,1002.82
2022-07-29T07:28:15.875Z,1002.81
2022-07-29T07:29:15.862Z,1002.82
2022-07-29T07:30:15.858Z,1002.80
2022-07-29T07:31:15.840Z,1002.79
2022-07-29T07:32:15.902Z,1002.78
2022-07-29T07:33:15.821Z,1002.77
2022-07-29T07:34:16.329Z,1002.78
2022-07-29T07:35:15.809Z,1002.77
2022-07-29T07:36:15.794Z,1002.77
2022-07-29T07:37:15.788Z,1002.74
2022-07-29T07:38:15.818Z,1002.74
2022-07-29T07:39:15.755Z,1002.74
2022-07-29T07:40:18.590Z,1002.75
2022-07-29T07:41:15.741Z,1002.76
2022-07-29T07:42:15.733Z,1002.75
2022-07-29T07:43:15.717Z,1002.76
2022-07-29T07:44:16.210Z,1002.77
2022-07-29T07:45:16.441Z,1002.77
2022-07-29T07:46:15.796Z,1002.79
2022-07-29T07:47:15.671Z,1002.79
2022-07-29T07:48:15.665Z,1002.79
2022-07-29T07:49:15.713Z,1002.80
2022-07-29T07:50:18.994Z,1002.79
2022-07-29T07:51:15.643Z,1002.78
2022-07-29T07:52:15.626Z,1002.78
2022-07-29T07:53:15.624Z,1002.78
2022-07-29T07:54:15.986Z,1002.79
2022-07-29T07:55:15.589Z,1002.81
2022-07-29T07:56:15.580Z,1002.82
2022-07-29T07:57:15.572Z,1002.84
2022-07-29T07:58:15.589Z,1002.84
2022-07-29T07:59:15.542Z,1002.85
2022-07-29T08:00:15.535Z,1002.85
2022-07-29T08:01:15.591Z,1002.83
2022-07-29T08:02:15.634Z,1002.80
2022-07-29T08:03:16.825Z,1002.77
2022-07-29T08:04:15.856Z,1002.78
2022-07-29T08:05:15.480Z,1002.78
2022-07-29T08:06:15.474Z,1002.77
2022-07-29T08:07:15.465Z,1002.76
2022-07-29T08:08:15.454Z,1002.73
2022-07-29T08:09:28.665Z,1002.73
2022-07-29T08:10:15.461Z,1002.73
2022-07-29T08:11:15.427Z,1002.73
2022-07-29T08:12:15.421Z,1002.72
2022-07-29T08:13:15.402Z,1002.73
2022-07-29T08:14:15.791Z,1002.71
2022-07-29T08:15:15.374Z,1002.71
2022-07-29T08:16:15.428Z,1002.72
2022-07-29T08:17:15.357Z,1002.71
2022-07-29T08:18:15.350Z,1002.70
2022-07-29T08:19:15.343Z,1002.71
2022-07-29T08:20:15.322Z,1002.72
2022-07-29T08:21:15.593Z,1002.73
2022-07-29T08:22:15.307Z,1002.75
2022-07-29T08:23:15.308Z,1002.76
2022-07-29T08:24:15.280Z,1002.76
2022-07-29T08:25:15.270Z,1002.78
2022-07-29T08:26:15.256Z,1002.76
2022-07-29T08:27:40.574Z,1002.78
2022-07-29T08:28:15.241Z,1002.76
2022-07-29T08:29:19.740Z,1002.75
2022-07-29T08:30:15.223Z,1002.75
2022-07-29T08:31:15.390Z,1002.76
2022-07-29T08:32:30.991Z,1002.73
2022-07-29T08:33:15.212Z,1002.73
2022-07-29T08:34:15.172Z,1002.76
2022-07-29T08:35:15.170Z,1002.77
2022-07-29T08:36:15.160Z,1002.75
2022-07-29T08:37:15.146Z,1002.77
2022-07-29T08:38:15.154Z,1002.77
2022-07-29T08:39:15.146Z,1002.81
2022-07-29T08:40:15.148Z,1002.80
2022-07-29T08:41:15.125Z,1002.79
2022-07-29T08:42:15.104Z,1002.78
2022-07-29T08:43:15.099Z,1002.78
2022-07-29T08:44:15.084Z,1002.76
2022-07-29T08:45:15.128Z,1002.74
2022-07-29T08:46:15.144Z,1002.72
2022-07-29T08:47:15.083Z,1002.72
2022-07-29T08:48:15.030Z,1002.70
2022-07-29T08:49:15.052Z,1002.72
2022-07-29T08:50:15.004Z,1002.73
2022-07-29T08:51:15.022Z,1002.74
2022-07-29T08:52:14.983Z,1002.75
2022-07-29T08:53:14.975Z,1002.76
2022-07-29T08:54:14.969Z,1002.75
2022-07-29T08:55:14.964Z,1002.76
2022-07-29T08:56:14.980Z,1002.75
2022-07-29T08:57:14.936Z,1002.74
2022-07-29T08:58:15.712Z,1002.74
2022-07-29T08:59:14.984Z,1002.72
2022-07-29T09:00:14.904Z,1002.74
2022-07-29T09:01:14.980Z,1002.74
2022-07-29T09:02:14.912Z,1002.72
2022-07-29T09:03:14.937Z,1002.75
2022-07-29T09:04:14.863Z,1002.74
2022-07-29T09:05:14.853Z,1002.76
2022-07-29T09:06:14.866Z,1002.78
2022-07-29T09:07:14.840Z,1002.78
2022-07-29T09:08:14.836Z,1002.77
2022-07-29T09:09:14.820Z,1002.77
2022-07-29T09:10:14.806Z,1002.76
2022-07-29T09:11:14.817Z,1002.75
2022-07-29T09:12:28.691Z,1002.76
2022-07-29T09:13:14.802Z,1002.76
2022-07-29T09:14:14.773Z,1002.75
2022-07-29T09:15:14.749Z,1002.76
2022-07-29T09:16:31.635Z,1002.75
2022-07-29T09:17:14.785Z,1002.74
2022-07-29T09:18:19.561Z,1002.70
2022-07-29T09:19:14.712Z,1002.71
2022-07-29T09:20:14.694Z,1002.71
2022-07-29T09:21:14.695Z,1002.70
2022-07-29T09:22:14.675Z,1002.70
2022-07-29T09:23:23.119Z,1002.69
2022-07-29T09:24:14.666Z,1002.69
2022-07-29T09:25:14.648Z,1002.69
2022-07-29T09:26:14.631Z,1002.68
2022-07-29T09:27:14.623Z,1002.68
2022-07-29T09:28:14.608Z,1002.67
2022-07-29T09:29:14.633Z,1002.66
2022-07-29T09:30:14.587Z,1002.65
2022-07-29T09:31:14.624Z,1002.67
2022-07-29T09:32:14.583Z,1002.67
2022-07-29T09:33:14.561Z,1002.65
2022-07-29T09:34:14.551Z,1002.64
2022-07-29T09:35:14.562Z,1002.61
2022-07-29T09:36:14.535Z,1002.60
2022-07-29T09:37:14.517Z,1002.59
2022-07-29T09:38:14.496Z,1002.57
2022-07-29T09:39:14.560Z,1002.58
2022-07-29T09:40:14.482Z,1002.59
2022-07-29T09:41:14.466Z,1002.58
2022-07-29T09:42:14.463Z,1002.59
2022-07-29T09:43:14.454Z,1002.58
2022-07-29T09:44:14.462Z,1002.57
2022-07-29T09:45:14.447Z,1002.58
2022-07-29T09:46:14.417Z,1002.58
2022-07-29T09:47:14.478Z,1002.57
2022-07-29T09:48:14.395Z,1002.58
2022-07-29T09:49:14.448Z,1002.57
2022-07-29T09:50:14.394Z,1002.56
2022-07-29T09:51:18.320Z,1002.56
2022-07-29T09:52:14.370Z,1002.54
2022-07-29T09:53:14.352Z,1002.51
2022-07-29T09:54:14.337Z,1002.55
2022-07-29T09:55:18.186Z,1002.52
2022-07-29T09:56:14.307Z,1002.52
2022-07-29T09:57:14.304Z,1002.52
2022-07-29T09:58:14.287Z,1002.51
2022-07-29T09:59:14.289Z,1002.50
2022-07-29T10:00:14.278Z,1002.50
2022-07-29T10:01:14.350Z,1002.48
2022-07-29T10:02:17.760Z,1002.47
2022-07-29T10:03:14.307Z,1002.47
2022-07-29T10:04:14.225Z,1002.47
2022-07-29T10:05:14.217Z,1002.45
2022-07-29T10:06:14.209Z,1002.44
2022-07-29T10:07:14.209Z,1002.45
2022-07-29T10:08:14.185Z,1002.45
2022-07-29T10:09:14.182Z,1002.45
2022-07-29T10:10:14.204Z,1002.46
2022-07-29T10:11:14.158Z,1002.47
2022-07-29T10:12:14.183Z,1002.45
2022-07-29T10:13:16.143Z,1002.45
2022-07-29T10:14:14.122Z,1002.44
2022-07-29T10:15:14.120Z,1002.44
2022-07-29T10:16:14.329Z,1002.42
2022-07-29T10:17:14.093Z,1002.41
2022-07-29T10:18:14.081Z,1002.43
2022-07-29T10:19:14.084Z,1002.41
2022-07-29T10:20:16.462Z,1002.40
2022-07-29T10:21:35.653Z,1002.37
2022-07-29T10:22:15.047Z,1002.37
2022-07-29T10:23:14.043Z,1002.37
2022-07-29T10:24:14.918Z,1002.37
2022-07-29T10:25:14.011Z,1002.38
2022-07-29T10:26:14.012Z,1002.37
2022-07-29T10:27:13.991Z,1002.36
2022-07-29T10:28:16.470Z,1002.34
2022-07-29T10:29:13.972Z,1002.32
2022-07-29T10:30:13.996Z,1002.32
2022-07-29T10:31:13.988Z,1002.34
2022-07-29T10:32:13.948Z,1002.33
2022-07-29T10:33:13.941Z,1002.33
2022-07-29T10:34:13.934Z,1002.32
2022-07-29T10:35:13.906Z,1002.33
2022-07-29T10:36:14.285Z,1002.35
2022-07-29T10:37:13.882Z,1002.35
2022-07-29T10:38:17.390Z,1002.36
2022-07-29T10:39:15.524Z,1002.36
2022-07-29T10:40:13.950Z,1002.37
2022-07-29T10:41:19.403Z,1002.36
2022-07-29T10:42:13.831Z,1002.33
2022-07-29T10:43:13.860Z,1002.31
2022-07-29T10:44:17.087Z,1002.29
2022-07-29T10:45:13.802Z,1002.30
2022-07-29T10:46:13.857Z,1002.31
2022-07-29T10:47:13.796Z,1002.33
2022-07-29T10:48:13.764Z,1002.34
2022-07-29T10:49:15.429Z,1002.31
2022-07-29T10:50:17.175Z,1002.31
2022-07-29T10:51:13.736Z,1002.30
2022-07-29T10:52:13.721Z,1002.28
2022-07-29T10:53:14.233Z,1002.24
2022-07-29T10:54:13.703Z,1002.23
2022-07-29T10:55:13.694Z,1002.21
2022-07-29T10:56:17.334Z,1002.21
2022-07-29T10:57:13.673Z,1002.22
2022-07-29T10:58:13.656Z,1002.20
2022-07-29T10:59:13.677Z,1002.19
2022-07-29T11:00:13.654Z,1002.21
2022-07-29T11:01:13.633Z,1002.21
2022-07-29T11:02:36.486Z,1002.20
2022-07-29T11:03:13.639Z,1002.20
2022-07-29T11:04:13.591Z,1002.20
2022-07-29T11:05:13.614Z,1002.17
2022-07-29T11:06:13.579Z,1002.16
2022-07-29T11:07:13.566Z,1002.16
2022-07-29T11:08:20.146Z,1002.15
2022-07-29T11:09:13.551Z,1002.15
2022-07-29T11:10:13.872Z,1002.15
2022-07-29T11:11:15.811Z,1002.14
2022-07-29T11:12:13.523Z,1002.13
2022-07-29T11:13:13.505Z,1002.10
2022-07-29T11:14:13.492Z,1002.08
2022-07-29T11:15:13.480Z,1002.09
2022-07-29T11:16:13.490Z,1002.10
2022-07-29T11:17:14.088Z,1002.09
2022-07-29T11:18:14.782Z,1002.10
2022-07-29T11:20:05.084Z,1002.08
2022-07-29T11:21:06.069Z,1002.07
2022-07-29T11:22:06.372Z,1002.08
2022-07-29T11:23:06.048Z,1002.09
2022-07-29T11:24:06.034Z,1002.07
2022-07-29T11:25:06.033Z,1002.06
2022-07-29T11:26:06.045Z,1002.05
2022-07-29T11:27:06.135Z,1002.06
2022-07-29T11:28:05.983Z,1002.05
2022-07-29T11:29:06.003Z,1002.04
2022-07-29T11:34:18.609Z,1001.98
2022-07-29T11:35:18.981Z,1001.96
2022-07-29T11:36:19.027Z,1001.96
2022-07-29T11:37:18.338Z,1001.96
2022-07-29T11:38:18.325Z,1001.97
2022-07-29T11:39:18.353Z,1001.98
2022-07-29T11:40:18.535Z,1002.00
2022-07-29T11:41:18.278Z,1001.99
2022-07-29T11:42:18.275Z,1002.00
2022-07-29T11:43:18.274Z,1001.99
2022-07-29T11:44:18.258Z,1001.97
2022-07-29T11:45:42.593Z,1001.95
2022-07-29T11:46:18.243Z,1001.95
2022-07-29T11:47:18.262Z,1001.95
2022-07-29T12:07:11.085Z,1001.94
2022-07-29T12:07:20.397Z,1001.70
2022-07-29T12:08:19.587Z,1001.69
2022-07-29T12:09:19.580Z,1001.68
2022-07-29T12:10:30.729Z,1001.68
2022-07-29T12:11:21.312Z,1001.67
2022-07-29T12:12:19.578Z,1001.67
2022-07-29T12:13:19.526Z,1001.68
2022-07-29T12:14:19.510Z,1001.61
2022-07-29T12:15:20.256Z,1001.58
2022-07-29T12:16:26.068Z,1001.61
2022-07-29T12:17:19.500Z,1001.57
2022-07-29T12:18:19.490Z,1001.55
2022-07-29T12:19:19.466Z,1001.55
2022-07-29T12:20:20.508Z,1001.59
2022-07-29T12:21:19.447Z,1001.59
2022-07-29T12:22:19.432Z,1001.57
2022-07-29T12:23:19.449Z,1001.58
2022-07-29T12:24:19.409Z,1001.54
2022-07-29T12:25:34.831Z,1001.51
2022-07-29T12:26:25.401Z,1001.51
2022-07-29T12:27:19.385Z,1001.50
2022-07-29T12:28:26.420Z,1001.48
2022-07-29T12:29:20.446Z,1001.48
2022-07-29T12:30:19.358Z,1001.49
2022-07-29T12:31:42.098Z,1001.48
2022-07-29T12:32:19.861Z,1001.48
2022-07-29T12:33:19.315Z,1001.48
2022-07-29T12:34:19.326Z,1001.46
2022-07-29T12:35:19.303Z,1001.45
2022-07-29T12:36:19.306Z,1001.48
2022-07-29T12:37:19.275Z,1001.40
2022-07-29T12:38:19.259Z,1001.43
2022-07-29T12:39:19.253Z,1001.41
2022-07-29T12:40:19.252Z,1001.39
2022-07-29T12:41:19.245Z,1001.36
2022-07-29T12:42:19.248Z,1001.34
2022-07-29T12:43:19.219Z,1001.34
2022-07-29T12:44:19.203Z,1001.30
2022-07-29T12:45:19.185Z,1001.35
2022-07-29T12:46:19.210Z,1001.31
2022-07-29T12:47:19.303Z,1001.31
2022-07-29T12:48:19.169Z,1001.33
2022-07-29T12:49:19.219Z,1001.32
2022-07-29T12:50:23.277Z,1001.32
2022-07-29T12:51:19.125Z,1001.32
2022-07-29T12:52:19.124Z,1001.30
2022-07-29T12:53:19.125Z,1001.30
2022-07-29T12:54:19.096Z,1001.28
2022-07-29T12:55:19.095Z,1001.26
2022-07-29T12:57:20.125Z,1001.22
2022-07-29T12:58:19.060Z,1001.22
2022-07-29T12:59:19.076Z,1001.20
2022-07-29T13:00:19.043Z,1001.19
2022-07-29T13:01:19.070Z,1001.18
2022-07-29T13:02:19.075Z,1001.15
2022-07-29T13:03:19.002Z,1001.16
2022-07-29T13:04:18.996Z,1001.15
2022-07-29T13:05:19.015Z,1001.13
2022-07-29T13:06:18.972Z,1001.17
2022-07-29T13:07:18.958Z,1001.15
2022-07-29T13:08:22.334Z,1001.13
2022-07-29T13:09:18.945Z,1001.13
2022-07-29T13:10:18.925Z,1001.10
2022-07-29T13:11:18.926Z,1001.09
2022-07-29T13:12:18.918Z,1001.09
2022-07-29T13:13:18.898Z,1001.08
2022-07-29T13:14:18.891Z,1001.10
2022-07-29T13:15:18.874Z,1001.10
2022-07-29T13:16:18.956Z,1001.10
2022-07-29T13:17:18.853Z,1001.12
2022-07-29T13:18:19.501Z,1001.13
2022-07-29T13:19:18.828Z,1001.14
2022-07-29T13:20:18.829Z,1001.14
2022-07-29T13:21:19.106Z,1001.15
2022-07-29T13:22:18.837Z,1001.17
2022-07-29T13:23:18.811Z,1001.14
2022-07-29T13:24:19.990Z,1001.15
2022-07-29T13:25:18.784Z,1001.16
2022-07-29T13:26:18.788Z,1001.18
2022-07-29T13:27:18.764Z,1001.17
2022-07-29T13:28:18.748Z,1001.15
2022-07-29T13:29:18.740Z,1001.17
2022-07-29T13:30:18.724Z,1001.17
2022-07-29T13:31:18.799Z,1001.15
2022-07-29T13:32:18.722Z,1001.13
2022-07-29T13:33:18.692Z,1001.11
2022-07-29T13:34:18.685Z,1001.09
2022-07-29T13:35:18.673Z,1001.11
2022-07-29T13:36:18.657Z,1001.06
2022-07-29T13:37:18.646Z,1001.08
2022-07-29T13:38:18.694Z,1001.09
2022-07-29T13:39:18.623Z,1001.08
2022-07-29T13:40:18.630Z,1001.06
2022-07-29T13:41:18.612Z,1000.99
2022-07-29T13:42:18.612Z,1001.00
2022-07-29T13:43:18.584Z,1000.98
2022-07-29T13:44:18.595Z,1000.98
2022-07-29T13:45:18.555Z,1000.95
2022-07-29T13:46:18.610Z,1000.93
2022-07-29T13:47:18.534Z,1000.94
2022-07-29T13:48:18.538Z,1000.94
2022-07-29T13:49:18.570Z,1000.94
2022-07-29T13:50:18.548Z,1000.94
2022-07-29T13:51:18.501Z,1000.92
2022-07-29T13:52:18.488Z,1000.90
2022-07-29T13:53:18.507Z,1000.91
2022-07-29T13:54:18.475Z,1000.92
2022-07-29T13:55:18.505Z,1000.93
2022-07-29T13:56:18.474Z,1000.94
2022-07-29T13:57:18.434Z,1000.95
2022-07-29T13:58:18.453Z,1000.97
2022-07-29T13:59:18.433Z,1000.98
2022-07-29T14:00:18.412Z,1001.00
2022-07-29T14:01:18.454Z,1000.98
2022-07-29T14:02:18.395Z,1000.99
2022-07-29T14:03:18.395Z,1001.01
2022-07-29T14:04:18.429Z,1001.01
2022-07-29T14:05:18.372Z,1001.01
2022-07-29T14:06:18.347Z,1001.01
2022-07-29T14:07:18.399Z,1001.02
2022-07-29T14:08:18.327Z,1001.02
2022-07-29T14:09:18.343Z,1001.03
2022-07-29T14:10:20.202Z,1001.02
2022-07-29T14:11:18.295Z,1001.03
2022-07-29T14:12:18.280Z,1001.01
2022-07-29T14:13:25.169Z,1000.99
2022-07-29T14:14:18.267Z,1000.98
2022-07-29T14:15:18.275Z,1000.99
2022-07-29T14:16:18.279Z,1000.98
2022-07-29T14:17:18.303Z,1000.99
2022-07-29T14:18:18.239Z,1000.98
2022-07-29T14:19:18.219Z,1000.99
2022-07-29T14:20:18.203Z,1001.02
2022-07-29T14:21:18.176Z,1001.01
2022-07-29T14:22:18.179Z,1001.04
2022-07-29T14:23:18.172Z,1001.05
2022-07-29T14:24:21.737Z,1001.07
2022-07-29T14:25:18.170Z,1001.09
2022-07-29T14:26:24.291Z,1001.10
2022-07-29T14:27:18.170Z,1001.11
2022-07-29T14:28:18.118Z,1001.13
2022-07-29T14:29:18.100Z,1001.15
2022-07-29T14:30:18.102Z,1001.17
2022-07-29T14:31:18.135Z,1001.20
2022-07-29T14:32:18.110Z,1001.23
2022-07-29T14:33:18.072Z,1001.27
2022-07-29T14:34:18.061Z,1001.30
2022-07-29T14:35:18.032Z,1001.32
2022-07-29T14:36:18.056Z,1001.31
2022-07-29T14:37:18.028Z,1001.33
2022-07-29T14:38:18.013Z,1001.35
2022-07-29T14:39:18.000Z,1001.34
2022-07-29T14:40:17.997Z,1001.37
2022-07-29T14:41:17.973Z,1001.36
2022-07-29T14:42:17.986Z,1001.38
2022-07-29T14:43:17.965Z,1001.39
2022-07-29T14:44:17.962Z,1001.40
2022-07-29T14:45:17.952Z,1001.42
2022-07-29T14:46:17.956Z,1001.43
2022-07-29T14:47:17.931Z,1001.45
2022-07-29T14:48:17.922Z,1001.45
2022-07-29T14:49:17.939Z,1001.45
2022-07-29T14:50:17.885Z,1001.43
2022-07-29T14:51:17.899Z,1001.42
2022-07-29T14:52:17.865Z,1001.44
2022-07-29T14:53:17.853Z,1001.44
2022-07-29T14:54:17.859Z,1001.46
2022-07-29T14:55:19.701Z,1001.46
2022-07-29T14:56:36.119Z,1001.50
2022-07-29T14:57:17.823Z,1001.51
2022-07-29T14:58:17.824Z,1001.51
2022-07-29T14:59:17.794Z,1001.53
2022-07-29T15:00:17.769Z,1001.54
2022-07-29T15:01:17.782Z,1001.52
2022-07-29T15:02:17.812Z,1001.52
2022-07-29T15:03:23.788Z,1001.52
2022-07-29T15:04:17.766Z,1001.45
2022-07-29T15:05:17.721Z,1001.46
2022-07-29T15:06:17.727Z,1001.44
2022-07-29T15:07:17.757Z,1001.43
2022-07-29T15:08:17.686Z,1001.41
2022-07-29T15:09:17.676Z,1001.42
2022-07-29T15:10:17.673Z,1001.41
2022-07-29T15:11:17.650Z,1001.38
2022-07-29T15:12:17.677Z,1001.37
2022-07-29T15:13:17.635Z,1001.37
2022-07-29T15:14:17.622Z,1001.36
2022-07-29T15:15:17.627Z,1001.39
2022-07-29T15:16:17.647Z,1001.41
2022-07-29T15:17:17.597Z,1001.41
2022-07-29T15:18:25.715Z,1001.44
2022-07-29T15:19:17.584Z,1001.46
2022-07-29T15:20:17.564Z,1001.46
2022-07-29T15:21:17.549Z,1001.46
2022-07-29T15:22:17.555Z,1001.43
2022-07-29T15:23:17.537Z,1001.45
2022-07-29T15:24:17.855Z,1001.46
2022-07-29T15:25:17.508Z,1001.44
2022-07-29T15:26:17.495Z,1001.45
2022-07-29T15:27:17.490Z,1001.46
2022-07-29T15:28:17.483Z,1001.47
2022-07-29T15:29:17.474Z,1001.47
2022-07-29T15:30:27.896Z,1001.48
2022-07-29T15:31:17.521Z,1001.50
2022-07-29T15:32:17.488Z,1001.50
2022-07-29T15:33:17.431Z,1001.50
2022-07-29T15:34:17.419Z,1001.49
2022-07-29T15:35:17.407Z,1001.51
2022-07-29T15:36:42.144Z,1001.53
2022-07-29T15:37:17.387Z,1001.55
2022-07-29T15:38:17.372Z,1001.56
2022-07-29T15:39:17.367Z,1001.57
2022-07-29T15:40:17.374Z,1001.58
2022-07-29T15:41:17.335Z,1001.59
2022-07-29T15:42:17.897Z,1001.60
2022-07-29T15:43:17.316Z,1001.60
2022-07-29T15:44:17.308Z,1001.62
2022-07-29T15:45:17.304Z,1001.64
2022-07-29T15:46:17.362Z,1001.66
2022-07-29T15:47:17.286Z,1001.67
2022-07-29T15:48:17.279Z,1001.67
2022-07-29T15:49:17.300Z,1001.67
2022-07-29T15:50:17.254Z,1001.68
2022-07-29T15:51:17.245Z,1001.68
2022-07-29T15:52:17.258Z,1001.68
2022-07-29T15:53:17.214Z,1001.68
2022-07-29T15:54:17.217Z,1001.69
2022-07-29T15:55:17.195Z,1001.69
2022-07-29T15:56:17.196Z,1001.70
2022-07-29T15:57:17.182Z,1001.70
2022-07-29T15:58:17.181Z,1001.68
2022-07-29T15:59:22.586Z,1001.69
2022-07-29T16:00:17.150Z,1001.69
2022-07-29T16:01:17.233Z,1001.71
2022-07-29T16:02:17.121Z,1001.69
2022-07-29T16:03:17.148Z,1001.68
2022-07-29T16:04:17.136Z,1001.67
2022-07-29T16:05:17.080Z,1001.66
2022-07-29T16:06:17.081Z,1001.65
2022-07-29T16:07:17.074Z,1001.65
2022-07-29T16:08:17.063Z,1001.66
2022-07-29T16:09:17.070Z,1001.66
2022-07-29T16:10:17.043Z,1001.68
2022-07-29T16:11:17.038Z,1001.71
2022-07-29T16:12:17.021Z,1001.73
2022-07-29T16:13:18.815Z,1001.74
2022-07-29T16:14:17.005Z,1001.75
2022-07-29T16:15:17.077Z,1001.75
2022-07-29T16:16:17.024Z,1001.75
2022-07-29T16:17:16.963Z,1001.75
2022-07-29T16:18:16.951Z,1001.76
2022-07-29T16:19:16.936Z,1001.77
2022-07-29T16:20:16.934Z,1001.78
2022-07-29T16:21:16.926Z,1001.79